sensor_id;sensor_type;location;lat;lon;timestamp;P1;durP1;ratioP1;P2;durP2;ratioP2
6723;SDS011;3399;52.530;13.304;2022-09-21T00:00:33;3.70;;;3.40;;
6723;SDS011;3399;52.530;13.304;2022-09-21T00:03:00;3.13;;;2.93;;
6723;SDS011;3399;52.530;13.304;2022-09-21T00:05:25;4.60;;;3.33;;
6723;SDS011;3399;52.530;13.304;2022-09-21T00:07:51;3.33;;;3.00;;
6723;SDS011;3399;52.530;13.304;2022-09-21T00:10:17;4.20;;;3.03;;
6723;SDS011;3399;52.530;13.304;2022-09-21T00:12:44;4.07;;;3.27;;
6723;SDS011;3399;52.530;13.304;2022-09-21T00:15:11;3.67;;;3.07;;
6723;SDS011;3399;52.530;13.304;2022-09-21T00:17:38;4.60;;;3.43;;
6723;SDS011;3399;52.530;13.304;2022-09-21T00:20:03;3.00;;;2.80;;
6723;SDS011;3399;52.530;13.304;2022-09-21T00:22:30;3.17;;;2.97;;
6723;SDS011;3399;52.530;13.304;2022-09-21T00:24:56;3.20;;;3.00;;
6723;SDS011;3399;52.530;13.304;2022-09-21T00:27:21;3.50;;;3.20;;
6723;SDS011;3399;52.530;13.304;2022-09-21T00:29:53;3.33;;;3.13;;
6723;SDS011;3399;52.530;13.304;2022-09-21T00:32:23;3.07;;;2.87;;
6723;SDS011;3399;52.530;13.304;2022-09-21T00:34:49;3.70;;;3.10;;
6723;SDS011;3399;52.530;13.304;2022-09-21T00:37:15;4.00;;;3.60;;
6723;SDS011;3399;52.530;13.304;2022-09-21T00:39:41;4.37;;;2.93;;
6723;SDS011;3399;52.530;13.304;2022-09-21T00:42:09;3.80;;;2.87;;
6723;SDS011;3399;52.530;13.304;2022-09-21T00:44:38;3.20;;;2.90;;
6723;SDS011;3399;52.530;13.304;2022-09-21T00:47:06;4.03;;;3.53;;
6723;SDS011;3399;52.530;13.304;2022-09-21T00:49:49;3.80;;;3.50;;
6723;SDS011;3399;52.530;13.304;2022-09-21T00:52:18;3.20;;;3.00;;
6723;SDS011;3399;52.530;13.304;2022-09-21T00:54:53;4.03;;;3.70;;
6723;SDS011;3399;52.530;13.304;2022-09-21T00:57:23;4.73;;;3.20;;
6723;SDS011;3399;52.530;13.304;2022-09-21T00:59:52;3.00;;;2.80;;
6723;SDS011;3399;52.530;13.304;2022-09-21T01:02:20;2.90;;;2.70;;
6723;SDS011;3399;52.530;13.304;2022-09-21T01:04:46;4.23;;;3.83;;
6723;SDS011;3399;52.530;13.304;2022-09-21T01:07:18;3.50;;;3.07;;
6723;SDS011;3399;52.530;13.304;2022-09-21T01:09:47;3.00;;;2.80;;
6723;SDS011;3399;52.530;13.304;2022-09-21T01:12:20;3.13;;;2.83;;
6723;SDS011;3399;52.530;13.304;2022-09-21T01:15:15;4.00;;;3.33;;
6723;SDS011;3399;52.530;13.304;2022-09-21T01:21:02;4.90;;;3.07;;
6723;SDS011;3399;52.530;13.304;2022-09-21T01:29:09;5.00;;;3.07;;
6723;SDS011;3399;52.530;13.304;2022-09-21T01:31:46;4.03;;;3.03;;
6723;SDS011;3399;52.530;13.304;2022-09-21T01:34:32;3.57;;;3.27;;
6723;SDS011;3399;52.530;13.304;2022-09-21T01:37:07;3.10;;;2.87;;
6723;SDS011;3399;52.530;13.304;2022-09-21T01:39:38;3.87;;;3.07;;
6723;SDS011;3399;52.530;13.304;2022-09-21T01:42:09;3.50;;;3.20;;
6723;SDS011;3399;52.530;13.304;2022-09-21T01:44:37;3.43;;;3.13;;
6723;SDS011;3399;52.530;13.304;2022-09-21T01:47:05;4.17;;;2.97;;
6723;SDS011;3399;52.530;13.304;2022-09-21T01:49:37;3.07;;;2.80;;
6723;SDS011;3399;52.530;13.304;2022-09-21T01:54:53;3.10;;;2.83;;
6723;SDS011;3399;52.530;13.304;2022-09-21T02:00:10;3.03;;;2.70;;
6723;SDS011;3399;52.530;13.304;2022-09-21T02:05:18;4.63;;;3.40;;
6723;SDS011;3399;52.530;13.304;2022-09-21T02:07:46;3.87;;;2.70;;
6723;SDS011;3399;52.530;13.304;2022-09-21T02:10:17;3.67;;;3.37;;
6723;SDS011;3399;52.530;13.304;2022-09-21T02:12:52;3.93;;;3.47;;
6723;SDS011;3399;52.530;13.304;2022-09-21T02:15:25;3.20;;;2.90;;
6723;SDS011;3399;52.530;13.304;2022-09-21T02:18:04;3.03;;;2.73;;
6723;SDS011;3399;52.530;13.304;2022-09-21T02:20:39;3.90;;;3.43;;
6723;SDS011;3399;52.530;13.304;2022-09-21T02:25:52;3.27;;;2.97;;
6723;SDS011;3399;52.530;13.304;2022-09-21T02:28:34;3.60;;;3.00;;
6723;SDS011;3399;52.530;13.304;2022-09-21T02:31:12;3.47;;;3.00;;
6723;SDS011;3399;52.530;13.304;2022-09-21T02:33:52;3.70;;;3.00;;
6723;SDS011;3399;52.530;13.304;2022-09-21T02:36:32;4.10;;;3.53;;
6723;SDS011;3399;52.530;13.304;2022-09-21T02:39:08;6.93;;;3.23;;
6723;SDS011;3399;52.530;13.304;2022-09-21T02:41:40;6.07;;;3.30;;
6723;SDS011;3399;52.530;13.304;2022-09-21T02:44:30;4.53;;;3.67;;
6723;SDS011;3399;52.530;13.304;2022-09-21T02:47:02;4.97;;;3.50;;
6723;SDS011;3399;52.530;13.304;2022-09-21T02:49:45;4.23;;;3.83;;
6723;SDS011;3399;52.530;13.304;2022-09-21T02:52:16;4.13;;;3.50;;
6723;SDS011;3399;52.530;13.304;2022-09-21T02:54:43;6.93;;;3.90;;
6723;SDS011;3399;52.530;13.304;2022-09-21T02:57:11;3.63;;;3.33;;
6723;SDS011;3399;52.530;13.304;2022-09-21T02:59:40;4.63;;;4.17;;
6723;SDS011;3399;52.530;13.304;2022-09-21T03:02:06;3.20;;;3.00;;
6723;SDS011;3399;52.530;13.304;2022-09-21T03:04:33;4.83;;;3.53;;
6723;SDS011;3399;52.530;13.304;2022-09-21T03:06:59;3.57;;;3.27;;
6723;SDS011;3399;52.530;13.304;2022-09-21T03:09:24;4.17;;;3.80;;
6723;SDS011;3399;52.530;13.304;2022-09-21T03:11:50;4.40;;;4.10;;
6723;SDS011;3399;52.530;13.304;2022-09-21T03:14:15;5.03;;;2.97;;
6723;SDS011;3399;52.530;13.304;2022-09-21T03:16:43;3.43;;;3.20;;
6723;SDS011;3399;52.530;13.304;2022-09-21T03:19:08;4.40;;;3.37;;
6723;SDS011;3399;52.530;13.304;2022-09-21T03:21:35;4.97;;;3.10;;
6723;SDS011;3399;52.530;13.304;2022-09-21T03:24:01;4.13;;;3.10;;
6723;SDS011;3399;52.530;13.304;2022-09-21T03:26:26;3.60;;;3.30;;
6723;SDS011;3399;52.530;13.304;2022-09-21T03:28:52;6.03;;;3.50;;
6723;SDS011;3399;52.530;13.304;2022-09-21T03:31:18;3.77;;;3.47;;
6723;SDS011;3399;52.530;13.304;2022-09-21T03:33:44;3.63;;;3.40;;
6723;SDS011;3399;52.530;13.304;2022-09-21T03:36:10;4.47;;;3.50;;
6723;SDS011;3399;52.530;13.304;2022-09-21T03:38:36;3.70;;;2.93;;
6723;SDS011;3399;52.530;13.304;2022-09-21T03:41:02;3.53;;;3.33;;
6723;SDS011;3399;52.530;13.304;2022-09-21T03:43:28;3.97;;;3.67;;
6723;SDS011;3399;52.530;13.304;2022-09-21T03:45:54;3.97;;;3.67;;
6723;SDS011;3399;52.530;13.304;2022-09-21T03:48:19;4.20;;;3.80;;
6723;SDS011;3399;52.530;13.304;2022-09-21T03:50:46;3.77;;;3.20;;
6723;SDS011;3399;52.530;13.304;2022-09-21T03:53:11;4.83;;;3.90;;
6723;SDS011;3399;52.530;13.304;2022-09-21T03:55:38;5.77;;;4.13;;
6723;SDS011;3399;52.530;13.304;2022-09-21T03:58:03;4.77;;;4.37;;
6723;SDS011;3399;52.530;13.304;2022-09-21T04:00:29;6.77;;;3.50;;
6723;SDS011;3399;52.530;13.304;2022-09-21T04:02:55;4.40;;;3.93;;
6723;SDS011;3399;52.530;13.304;2022-09-21T04:05:21;4.20;;;3.80;;
6723;SDS011;3399;52.530;13.304;2022-09-21T04:07:47;4.70;;;4.13;;
6723;SDS011;3399;52.530;13.304;2022-09-21T04:10:14;3.30;;;3.03;;
6723;SDS011;3399;52.530;13.304;2022-09-21T04:12:41;4.17;;;3.73;;
6723;SDS011;3399;52.530;13.304;2022-09-21T04:15:12;5.47;;;3.60;;
6723;SDS011;3399;52.530;13.304;2022-09-21T04:17:38;3.83;;;3.53;;
6723;SDS011;3399;52.530;13.304;2022-09-21T04:20:05;5.77;;;4.17;;
6723;SDS011;3399;52.530;13.304;2022-09-21T04:22:31;7.50;;;4.93;;
6723;SDS011;3399;52.530;13.304;2022-09-21T04:24:57;7.10;;;4.90;;
6723;SDS011;3399;52.530;13.304;2022-09-21T04:27:22;5.00;;;4.00;;
6723;SDS011;3399;52.530;13.304;2022-09-21T04:29:48;6.40;;;4.27;;
6723;SDS011;3399;52.530;13.304;2022-09-21T04:32:14;4.10;;;3.40;;
6723;SDS011;3399;52.530;13.304;2022-09-21T04:34:39;4.93;;;3.23;;
6723;SDS011;3399;52.530;13.304;2022-09-21T04:37:05;5.13;;;3.67;;
6723;SDS011;3399;52.530;13.304;2022-09-21T04:39:35;3.70;;;3.40;;
6723;SDS011;3399;52.530;13.304;2022-09-21T04:42:00;4.37;;;4.00;;
6723;SDS011;3399;52.530;13.304;2022-09-21T04:44:26;4.37;;;3.97;;
6723;SDS011;3399;52.530;13.304;2022-09-21T04:46:52;6.47;;;3.73;;
6723;SDS011;3399;52.530;13.304;2022-09-21T04:49:17;4.10;;;3.70;;
6723;SDS011;3399;52.530;13.304;2022-09-21T04:51:43;3.87;;;3.07;;
6723;SDS011;3399;52.530;13.304;2022-09-21T04:54:08;4.50;;;4.10;;
6723;SDS011;3399;52.530;13.304;2022-09-21T04:56:34;4.67;;;4.23;;
6723;SDS011;3399;52.530;13.304;2022-09-21T04:59:00;4.63;;;4.00;;
6723;SDS011;3399;52.530;13.304;2022-09-21T05:01:25;4.33;;;3.43;;
6723;SDS011;3399;52.530;13.304;2022-09-21T05:03:51;6.10;;;3.97;;
6723;SDS011;3399;52.530;13.304;2022-09-21T05:06:17;4.93;;;4.00;;
6723;SDS011;3399;52.530;13.304;2022-09-21T05:08:42;5.53;;;4.50;;
6723;SDS011;3399;52.530;13.304;2022-09-21T05:11:26;4.77;;;4.27;;
6723;SDS011;3399;52.530;13.304;2022-09-21T05:13:52;5.70;;;5.00;;
6723;SDS011;3399;52.530;13.304;2022-09-21T05:16:17;5.30;;;4.80;;
6723;SDS011;3399;52.530;13.304;2022-09-21T05:18:43;5.33;;;4.57;;
6723;SDS011;3399;52.530;13.304;2022-09-21T05:21:12;4.90;;;4.50;;
6723;SDS011;3399;52.530;13.304;2022-09-21T05:23:39;5.43;;;4.37;;
6723;SDS011;3399;52.530;13.304;2022-09-21T05:26:05;7.53;;;4.93;;
6723;SDS011;3399;52.530;13.304;2022-09-21T05:28:30;5.07;;;4.57;;
6723;SDS011;3399;52.530;13.304;2022-09-21T05:31:10;6.20;;;4.17;;
6723;SDS011;3399;52.530;13.304;2022-09-21T05:33:58;8.40;;;5.17;;
6723;SDS011;3399;52.530;13.304;2022-09-21T05:36:43;7.53;;;4.80;;
6723;SDS011;3399;52.530;13.304;2022-09-21T05:39:16;7.70;;;5.17;;
6723;SDS011;3399;52.530;13.304;2022-09-21T05:41:42;5.17;;;4.27;;
6723;SDS011;3399;52.530;13.304;2022-09-21T05:44:10;5.70;;;4.67;;
6723;SDS011;3399;52.530;13.304;2022-09-21T05:46:41;9.43;;;5.33;;
6723;SDS011;3399;52.530;13.304;2022-09-21T05:49:21;5.73;;;5.13;;
6723;SDS011;3399;52.530;13.304;2022-09-21T05:51:55;5.67;;;5.17;;
6723;SDS011;3399;52.530;13.304;2022-09-21T05:57:39;7.57;;;5.67;;
6723;SDS011;3399;52.530;13.304;2022-09-21T06:00:16;7.37;;;5.80;;
6723;SDS011;3399;52.530;13.304;2022-09-21T06:05:23;7.47;;;5.07;;
6723;SDS011;3399;52.530;13.304;2022-09-21T06:07:48;5.80;;;5.20;;
6723;SDS011;3399;52.530;13.304;2022-09-21T06:13:36;5.93;;;5.03;;
6723;SDS011;3399;52.530;13.304;2022-09-21T06:16:02;9.40;;;5.60;;
6723;SDS011;3399;52.530;13.304;2022-09-21T06:18:28;6.57;;;5.80;;
6723;SDS011;3399;52.530;13.304;2022-09-21T06:20:54;8.47;;;5.83;;
6723;SDS011;3399;52.530;13.304;2022-09-21T06:23:20;8.93;;;5.30;;
6723;SDS011;3399;52.530;13.304;2022-09-21T06:25:51;5.33;;;4.83;;
6723;SDS011;3399;52.530;13.304;2022-09-21T06:28:17;7.43;;;5.63;;
6723;SDS011;3399;52.530;13.304;2022-09-21T06:30:48;14.10;;;5.67;;
6723;SDS011;3399;52.530;13.304;2022-09-21T06:33:15;5.97;;;5.37;;
6723;SDS011;3399;52.530;13.304;2022-09-21T06:35:49;5.90;;;5.07;;
6723;SDS011;3399;52.530;13.304;2022-09-21T06:38:19;5.90;;;5.40;;
6723;SDS011;3399;52.530;13.304;2022-09-21T06:40:45;9.33;;;5.43;;
6723;SDS011;3399;52.530;13.304;2022-09-21T06:43:10;6.37;;;5.17;;
6723;SDS011;3399;52.530;13.304;2022-09-21T06:45:36;7.37;;;5.17;;
6723;SDS011;3399;52.530;13.304;2022-09-21T06:48:01;9.63;;;5.20;;
6723;SDS011;3399;52.530;13.304;2022-09-21T06:50:27;6.33;;;5.07;;
6723;SDS011;3399;52.530;13.304;2022-09-21T06:52:52;4.50;;;3.77;;
6723;SDS011;3399;52.530;13.304;2022-09-21T06:55:18;4.90;;;4.07;;
6723;SDS011;3399;52.530;13.304;2022-09-21T06:57:44;10.17;;;4.97;;
6723;SDS011;3399;52.530;13.304;2022-09-21T07:00:10;4.93;;;4.40;;
6723;SDS011;3399;52.530;13.304;2022-09-21T07:02:36;7.33;;;4.93;;
6723;SDS011;3399;52.530;13.304;2022-09-21T07:05:02;6.33;;;4.27;;
6723;SDS011;3399;52.530;13.304;2022-09-21T07:07:29;6.20;;;4.23;;
6723;SDS011;3399;52.530;13.304;2022-09-21T07:09:55;5.97;;;4.23;;
6723;SDS011;3399;52.530;13.304;2022-09-21T07:12:23;4.57;;;3.70;;
6723;SDS011;3399;52.530;13.304;2022-09-21T07:14:50;3.80;;;3.10;;
6723;SDS011;3399;52.530;13.304;2022-09-21T07:17:15;6.00;;;4.07;;
6723;SDS011;3399;52.530;13.304;2022-09-21T07:19:41;6.03;;;3.20;;
6723;SDS011;3399;52.530;13.304;2022-09-21T07:22:06;5.00;;;3.70;;
6723;SDS011;3399;52.530;13.304;2022-09-21T07:24:32;6.37;;;3.50;;
6723;SDS011;3399;52.530;13.304;2022-09-21T07:26:58;4.80;;;3.47;;
6723;SDS011;3399;52.530;13.304;2022-09-21T07:29:23;4.20;;;3.80;;
6723;SDS011;3399;52.530;13.304;2022-09-21T07:31:49;3.87;;;3.50;;
6723;SDS011;3399;52.530;13.304;2022-09-21T07:34:14;5.20;;;4.13;;
6723;SDS011;3399;52.530;13.304;2022-09-21T07:36:40;4.13;;;3.73;;
6723;SDS011;3399;52.530;13.304;2022-09-21T07:39:07;4.37;;;3.97;;
6723;SDS011;3399;52.530;13.304;2022-09-21T07:41:33;7.83;;;4.67;;
6723;SDS011;3399;52.530;13.304;2022-09-21T07:43:59;5.87;;;3.63;;
6723;SDS011;3399;52.530;13.304;2022-09-21T07:46:25;4.87;;;4.37;;
6723;SDS011;3399;52.530;13.304;2022-09-21T07:48:52;4.23;;;3.77;;
6723;SDS011;3399;52.530;13.304;2022-09-21T07:51:18;5.47;;;3.97;;
6723;SDS011;3399;52.530;13.304;2022-09-21T07:53:44;6.70;;;4.03;;
6723;SDS011;3399;52.530;13.304;2022-09-21T07:56:10;6.50;;;4.93;;
6723;SDS011;3399;52.530;13.304;2022-09-21T07:58:38;4.37;;;3.90;;
6723;SDS011;3399;52.530;13.304;2022-09-21T08:01:24;4.90;;;4.40;;
6723;SDS011;3399;52.530;13.304;2022-09-21T08:03:51;4.60;;;4.20;;
6723;SDS011;3399;52.530;13.304;2022-09-21T08:06:17;5.27;;;3.77;;
6723;SDS011;3399;52.530;13.304;2022-09-21T08:08:44;4.57;;;4.13;;
6723;SDS011;3399;52.530;13.304;2022-09-21T08:11:12;4.93;;;4.37;;
6723;SDS011;3399;52.530;13.304;2022-09-21T08:13:38;8.47;;;4.93;;
6723;SDS011;3399;52.530;13.304;2022-09-21T08:16:03;5.87;;;4.40;;
6723;SDS011;3399;52.530;13.304;2022-09-21T08:18:29;5.20;;;4.67;;
6723;SDS011;3399;52.530;13.304;2022-09-21T08:20:55;7.33;;;4.87;;
6723;SDS011;3399;52.530;13.304;2022-09-21T08:23:22;6.53;;;4.50;;
6723;SDS011;3399;52.530;13.304;2022-09-21T08:25:48;4.63;;;3.80;;
6723;SDS011;3399;52.530;13.304;2022-09-21T08:28:13;5.70;;;4.03;;
6723;SDS011;3399;52.530;13.304;2022-09-21T08:30:39;4.33;;;3.53;;
6723;SDS011;3399;52.530;13.304;2022-09-21T08:33:05;6.13;;;4.47;;
6723;SDS011;3399;52.530;13.304;2022-09-21T08:35:32;4.40;;;4.00;;
6723;SDS011;3399;52.530;13.304;2022-09-21T08:37:58;4.47;;;3.83;;
6723;SDS011;3399;52.530;13.304;2022-09-21T08:40:24;4.00;;;3.70;;
6723;SDS011;3399;52.530;13.304;2022-09-21T08:43:03;5.93;;;4.73;;
6723;SDS011;3399;52.530;13.304;2022-09-21T08:45:39;4.77;;;3.50;;
6723;SDS011;3399;52.530;13.304;2022-09-21T08:48:09;6.23;;;4.13;;
6723;SDS011;3399;52.530;13.304;2022-09-21T08:50:45;3.63;;;3.03;;
6723;SDS011;3399;52.530;13.304;2022-09-21T08:53:37;4.47;;;4.07;;
6723;SDS011;3399;52.530;13.304;2022-09-21T08:56:09;4.67;;;3.70;;
6723;SDS011;3399;52.530;13.304;2022-09-21T08:58:36;4.00;;;3.30;;
6723;SDS011;3399;52.530;13.304;2022-09-21T09:04:02;4.90;;;3.53;;
6723;SDS011;3399;52.530;13.304;2022-09-21T09:12:33;3.93;;;3.50;;
6723;SDS011;3399;52.530;13.304;2022-09-21T09:18:22;5.20;;;4.20;;
6723;SDS011;3399;52.530;13.304;2022-09-21T09:21:05;7.00;;;5.27;;
6723;SDS011;3399;52.530;13.304;2022-09-21T09:23:46;4.97;;;4.57;;
6723;SDS011;3399;52.530;13.304;2022-09-21T09:26:21;7.33;;;4.50;;
6723;SDS011;3399;52.530;13.304;2022-09-21T09:28:54;5.03;;;3.87;;
6723;SDS011;3399;52.530;13.304;2022-09-21T09:31:27;4.17;;;3.30;;
6723;SDS011;3399;52.530;13.304;2022-09-21T09:33:59;3.07;;;2.73;;
6723;SDS011;3399;52.530;13.304;2022-09-21T09:36:35;3.97;;;3.67;;
6723;SDS011;3399;52.530;13.304;2022-09-21T09:39:04;3.73;;;3.17;;
6723;SDS011;3399;52.530;13.304;2022-09-21T09:41:59;6.37;;;2.80;;
6723;SDS011;3399;52.530;13.304;2022-09-21T09:50:26;3.83;;;2.73;;
6723;SDS011;3399;52.530;13.304;2022-09-21T09:52:56;3.90;;;2.23;;
6723;SDS011;3399;52.530;13.304;2022-09-21T09:55:31;4.37;;;2.47;;
6723;SDS011;3399;52.530;13.304;2022-09-21T09:58:15;5.67;;;1.83;;
6723;SDS011;3399;52.530;13.304;2022-09-21T10:00:46;1.73;;;1.63;;
6723;SDS011;3399;52.530;13.304;2022-09-21T10:03:24;2.83;;;1.90;;
6723;SDS011;3399;52.530;13.304;2022-09-21T10:05:51;2.20;;;2.10;;
6723;SDS011;3399;52.530;13.304;2022-09-21T10:11:01;2.20;;;1.77;;
6723;SDS011;3399;52.530;13.304;2022-09-21T10:13:28;1.23;;;1.23;;
6723;SDS011;3399;52.530;13.304;2022-09-21T10:16:19;3.67;;;2.07;;
6723;SDS011;3399;52.530;13.304;2022-09-21T10:18:53;1.93;;;1.53;;
6723;SDS011;3399;52.530;13.304;2022-09-21T10:21:21;2.70;;;1.10;;
6723;SDS011;3399;52.530;13.304;2022-09-21T10:23:59;2.97;;;1.70;;
6723;SDS011;3399;52.530;13.304;2022-09-21T10:26:29;1.73;;;1.40;;
6723;SDS011;3399;52.530;13.304;2022-09-21T10:29:16;1.53;;;1.00;;
6723;SDS011;3399;52.530;13.304;2022-09-21T10:31:54;0.90;;;0.90;;
6723;SDS011;3399;52.530;13.304;2022-09-21T10:34:21;2.17;;;1.07;;
6723;SDS011;3399;52.530;13.304;2022-09-21T10:36:48;5.33;;;1.03;;
6723;SDS011;3399;52.530;13.304;2022-09-21T10:39:20;1.07;;;0.70;;
6723;SDS011;3399;52.530;13.304;2022-09-21T10:42:06;0.70;;;0.60;;
6723;SDS011;3399;52.530;13.304;2022-09-21T10:44:41;1.87;;;1.03;;
6723;SDS011;3399;52.530;13.304;2022-09-21T10:47:15;0.83;;;0.83;;
6723;SDS011;3399;52.530;13.304;2022-09-21T10:49:54;1.10;;;1.00;;
6723;SDS011;3399;52.530;13.304;2022-09-21T10:52:23;1.33;;;0.93;;
6723;SDS011;3399;52.530;13.304;2022-09-21T10:54:56;2.70;;;0.60;;
6723;SDS011;3399;52.530;13.304;2022-09-21T10:57:22;0.70;;;0.70;;
6723;SDS011;3399;52.530;13.304;2022-09-21T10:59:49;1.83;;;0.63;;
6723;SDS011;3399;52.530;13.304;2022-09-21T11:02:25;0.90;;;0.67;;
6723;SDS011;3399;52.530;13.304;2022-09-21T11:05:08;0.63;;;0.63;;
6723;SDS011;3399;52.530;13.304;2022-09-21T11:07:40;0.83;;;0.83;;
6723;SDS011;3399;52.530;13.304;2022-09-21T11:10:23;0.60;;;0.60;;
6723;SDS011;3399;52.530;13.304;2022-09-21T11:13:13;1.07;;;0.60;;
6723;SDS011;3399;52.530;13.304;2022-09-21T11:16:00;0.87;;;0.87;;
6723;SDS011;3399;52.530;13.304;2022-09-21T11:27:20;0.80;;;0.80;;
6723;SDS011;3399;52.530;13.304;2022-09-21T11:29:56;0.40;;;0.40;;
6723;SDS011;3399;52.530;13.304;2022-09-21T11:35:51;1.27;;;0.90;;
6723;SDS011;3399;52.530;13.304;2022-09-21T11:38:47;1.20;;;1.00;;
6723;SDS011;3399;52.530;13.304;2022-09-21T11:41:27;0.70;;;0.70;;
6723;SDS011;3399;52.530;13.304;2022-09-21T11:44:12;3.83;;;0.97;;
6723;SDS011;3399;52.530;13.304;2022-09-21T11:52:27;1.47;;;1.37;;
6723;SDS011;3399;52.530;13.304;2022-09-21T11:55:07;1.40;;;1.23;;
6723;SDS011;3399;52.530;13.304;2022-09-21T11:57:47;0.90;;;0.90;;
6723;SDS011;3399;52.530;13.304;2022-09-21T12:00:22;2.63;;;0.80;;
6723;SDS011;3399;52.530;13.304;2022-09-21T12:03:06;1.13;;;0.90;;
6723;SDS011;3399;52.530;13.304;2022-09-21T12:11:21;1.90;;;1.13;;
6723;SDS011;3399;52.530;13.304;2022-09-21T12:14:52;1.57;;;0.73;;
6723;SDS011;3399;52.530;13.304;2022-09-21T12:17:13;1.13;;;0.90;;
6723;SDS011;3399;52.530;13.304;2022-09-21T12:22:31;0.70;;;0.70;;
6723;SDS011;3399;52.530;13.304;2022-09-21T12:28:17;2.83;;;0.93;;
6723;SDS011;3399;52.530;13.304;2022-09-21T12:30:49;1.17;;;1.07;;
6723;SDS011;3399;52.530;13.304;2022-09-21T12:33:24;3.07;;;0.57;;
6723;SDS011;3399;52.530;13.304;2022-09-21T12:36:02;1.50;;;1.00;;
6723;SDS011;3399;52.530;13.304;2022-09-21T12:41:17;2.60;;;0.97;;
6723;SDS011;3399;52.530;13.304;2022-09-21T12:43:59;1.27;;;1.00;;
6723;SDS011;3399;52.530;13.304;2022-09-21T12:46:39;2.67;;;1.20;;
6723;SDS011;3399;52.530;13.304;2022-09-21T12:49:14;3.00;;;0.77;;
6723;SDS011;3399;52.530;13.304;2022-09-21T12:51:47;1.10;;;0.77;;
6723;SDS011;3399;52.530;13.304;2022-09-21T12:54:18;11.87;;;10.07;;
6723;SDS011;3399;52.530;13.304;2022-09-21T12:56:55;1.40;;;0.93;;
6723;SDS011;3399;52.530;13.304;2022-09-21T12:59:36;1.03;;;0.83;;
6723;SDS011;3399;52.530;13.304;2022-09-21T13:02:25;1.03;;;0.93;;
6723;SDS011;3399;52.530;13.304;2022-09-21T13:05:12;4.60;;;1.57;;
6723;SDS011;3399;52.530;13.304;2022-09-21T13:07:59;1.43;;;1.00;;
6723;SDS011;3399;52.530;13.304;2022-09-21T13:13:36;2.10;;;0.90;;
6723;SDS011;3399;52.530;13.304;2022-09-21T13:16:13;0.73;;;0.73;;
6723;SDS011;3399;52.530;13.304;2022-09-21T13:18:53;1.20;;;0.90;;
6723;SDS011;3399;52.530;13.304;2022-09-21T13:21:25;0.90;;;0.90;;
6723;SDS011;3399;52.530;13.304;2022-09-21T13:26:36;1.20;;;0.87;;
6723;SDS011;3399;52.530;13.304;2022-09-21T13:29:06;5.03;;;3.60;;
6723;SDS011;3399;52.530;13.304;2022-09-21T13:32:01;4.83;;;1.00;;
6723;SDS011;3399;52.530;13.304;2022-09-21T13:34:29;0.80;;;0.73;;
6723;SDS011;3399;52.530;13.304;2022-09-21T13:47:39;0.83;;;0.83;;
6723;SDS011;3399;52.530;13.304;2022-09-21T13:50:09;1.63;;;1.40;;
6723;SDS011;3399;52.530;13.304;2022-09-21T13:53:03;1.07;;;0.80;;
6723;SDS011;3399;52.530;13.304;2022-09-21T13:55:34;5.67;;;0.93;;
6723;SDS011;3399;52.530;13.304;2022-09-21T14:03:23;1.90;;;0.80;;
6723;SDS011;3399;52.530;13.304;2022-09-21T14:05:53;1.30;;;0.83;;
6723;SDS011;3399;52.530;13.304;2022-09-21T14:08:28;0.60;;;0.60;;
6723;SDS011;3399;52.530;13.304;2022-09-21T14:11:01;0.80;;;0.80;;
6723;SDS011;3399;52.530;13.304;2022-09-21T14:13:33;1.23;;;0.70;;
6723;SDS011;3399;52.530;13.304;2022-09-21T14:18:57;1.00;;;0.90;;
6723;SDS011;3399;52.530;13.304;2022-09-21T14:21:24;1.35;;;0.88;;
6723;SDS011;3399;52.530;13.304;2022-09-21T14:26:34;1.20;;;1.10;;
6723;SDS011;3399;52.530;13.304;2022-09-21T14:29:09;1.05;;;0.82;;
6723;SDS011;3399;52.530;13.304;2022-09-21T14:31:58;0.70;;;0.70;;
6723;SDS011;3399;52.530;13.304;2022-09-21T14:34:29;1.20;;;1.10;;
6723;SDS011;3399;52.530;13.304;2022-09-21T14:37:01;1.57;;;0.77;;
6723;SDS011;3399;52.530;13.304;2022-09-21T14:39:36;1.33;;;0.70;;
6723;SDS011;3399;52.530;13.304;2022-09-21T14:42:18;2.20;;;0.80;;
6723;SDS011;3399;52.530;13.304;2022-09-21T14:44:48;1.00;;;0.77;;
6723;SDS011;3399;52.530;13.304;2022-09-21T14:47:28;1.23;;;0.60;;
6723;SDS011;3399;52.530;13.304;2022-09-21T14:50:05;1.10;;;1.00;;
6723;SDS011;3399;52.530;13.304;2022-09-21T14:59:00;2.83;;;1.10;;
6723;SDS011;3399;52.530;13.304;2022-09-21T15:04:02;1.00;;;0.70;;
6723;SDS011;3399;52.530;13.304;2022-09-21T15:06:34;1.93;;;1.17;;
6723;SDS011;3399;52.530;13.304;2022-09-21T15:09:25;1.30;;;1.00;;
6723;SDS011;3399;52.530;13.304;2022-09-21T15:12:44;0.70;;;0.70;;
6723;SDS011;3399;52.530;13.304;2022-09-21T15:18:15;1.43;;;1.20;;
6723;SDS011;3399;52.530;13.304;2022-09-21T15:20:44;2.20;;;0.80;;
6723;SDS011;3399;52.530;13.304;2022-09-21T15:23:25;0.53;;;0.53;;
6723;SDS011;3399;52.530;13.304;2022-09-21T15:26:07;0.77;;;0.77;;
6723;SDS011;3399;52.530;13.304;2022-09-21T15:28:46;0.50;;;0.43;;
6723;SDS011;3399;52.530;13.304;2022-09-21T15:31:15;0.90;;;0.80;;
6723;SDS011;3399;52.530;13.304;2022-09-21T15:33:41;0.70;;;0.70;;
6723;SDS011;3399;52.530;13.304;2022-09-21T15:36:11;3.90;;;0.60;;
6723;SDS011;3399;52.530;13.304;2022-09-21T15:38:37;0.90;;;0.60;;
6723;SDS011;3399;52.530;13.304;2022-09-21T15:41:04;1.40;;;0.60;;
6723;SDS011;3399;52.530;13.304;2022-09-21T15:43:31;1.13;;;1.07;;
6723;SDS011;3399;52.530;13.304;2022-09-21T15:46:02;0.80;;;0.80;;
6723;SDS011;3399;52.530;13.304;2022-09-21T15:48:31;2.83;;;0.73;;
6723;SDS011;3399;52.530;13.304;2022-09-21T15:51:09;0.90;;;0.60;;
6723;SDS011;3399;52.530;13.304;2022-09-21T15:53:38;1.13;;;0.50;;
6723;SDS011;3399;52.530;13.304;2022-09-21T15:56:21;4.17;;;1.27;;
6723;SDS011;3399;52.530;13.304;2022-09-21T15:58:49;2.10;;;1.10;;
6723;SDS011;3399;52.530;13.304;2022-09-21T16:01:22;1.47;;;0.93;;
6723;SDS011;3399;52.530;13.304;2022-09-21T16:03:48;1.10;;;1.10;;
6723;SDS011;3399;52.530;13.304;2022-09-21T16:06:38;0.97;;;0.80;;
6723;SDS011;3399;52.530;13.304;2022-09-21T16:11:52;0.93;;;0.90;;
6723;SDS011;3399;52.530;13.304;2022-09-21T16:14:18;0.70;;;0.70;;
6723;SDS011;3399;52.530;13.304;2022-09-21T16:19:41;0.97;;;0.70;;
6723;SDS011;3399;52.530;13.304;2022-09-21T16:22:12;0.93;;;0.80;;
6723;SDS011;3399;52.530;13.304;2022-09-21T16:24:53;1.20;;;1.10;;
6723;SDS011;3399;52.530;13.304;2022-09-21T16:27:22;2.20;;;1.13;;
6723;SDS011;3399;52.530;13.304;2022-09-21T16:29:49;0.60;;;0.60;;
6723;SDS011;3399;52.530;13.304;2022-09-21T16:35:07;0.63;;;0.60;;
6723;SDS011;3399;52.530;13.304;2022-09-21T16:37:50;1.03;;;0.60;;
6723;SDS011;3399;52.530;13.304;2022-09-21T16:40:17;0.80;;;0.80;;
6723;SDS011;3399;52.530;13.304;2022-09-21T16:42:43;1.90;;;0.80;;
6723;SDS011;3399;52.530;13.304;2022-09-21T16:45:15;1.67;;;0.90;;
6723;SDS011;3399;52.530;13.304;2022-09-21T16:47:48;2.17;;;0.73;;
6723;SDS011;3399;52.530;13.304;2022-09-21T16:50:14;1.50;;;1.10;;
6723;SDS011;3399;52.530;13.304;2022-09-21T16:52:42;0.77;;;0.77;;
6723;SDS011;3399;52.530;13.304;2022-09-21T16:55:12;1.37;;;1.27;;
6723;SDS011;3399;52.530;13.304;2022-09-21T16:57:39;0.73;;;0.73;;
6723;SDS011;3399;52.530;13.304;2022-09-21T17:00:10;3.87;;;1.77;;
6723;SDS011;3399;52.530;13.304;2022-09-21T17:02:37;1.20;;;1.10;;
6723;SDS011;3399;52.530;13.304;2022-09-21T17:05:09;1.93;;;1.17;;
6723;SDS011;3399;52.530;13.304;2022-09-21T17:07:34;2.27;;;1.47;;
6723;SDS011;3399;52.530;13.304;2022-09-21T17:10:00;1.70;;;1.30;;
6723;SDS011;3399;52.530;13.304;2022-09-21T17:12:26;1.27;;;1.03;;
6723;SDS011;3399;52.530;13.304;2022-09-21T17:14:52;0.83;;;0.83;;
6723;SDS011;3399;52.530;13.304;2022-09-21T17:17:19;5.73;;;1.30;;
6723;SDS011;3399;52.530;13.304;2022-09-21T17:19:47;6.27;;;3.40;;
6723;SDS011;3399;52.530;13.304;2022-09-21T17:22:14;1.50;;;1.20;;
6723;SDS011;3399;52.530;13.304;2022-09-21T17:24:43;1.70;;;1.20;;
6723;SDS011;3399;52.530;13.304;2022-09-21T17:27:10;4.87;;;1.50;;
6723;SDS011;3399;52.530;13.304;2022-09-21T17:29:36;1.13;;;1.10;;
6723;SDS011;3399;52.530;13.304;2022-09-21T17:32:07;0.93;;;0.80;;
6723;SDS011;3399;52.530;13.304;2022-09-21T17:34:34;1.27;;;0.87;;